sensor_id;sensor_type;location;lat;lon;timestamp;pressure;altitude;pressure_sealevel;temperature;humidity
17781;BME280;8498;52.516;13.790;2023-07-22T00:01:06;100571.84;;;14.47;100.00
17781;BME280;8498;52.516;13.790;2023-07-22T00:06:28;100572.78;;;14.67;100.00
17781;BME280;8498;52.516;13.790;2023-07-22T00:11:51;100568.81;;;14.61;100.00
17781;BME280;8498;52.516;13.790;2023-07-22T00:17:13;100560.09;;;14.59;100.00
17781;BME280;8498;52.516;13.790;2023-07-22T00:22:39;100552.44;;;14.55;100.00
17781;BME280;8498;52.516;13.790;2023-07-22T00:28:02;100554.56;;;14.51;100.00
17781;BME280;8498;52.516;13.790;2023-07-22T00:33:26;100557.50;;;14.48;100.00
17781;BME280;8498;52.516;13.790;2023-07-22T00:38:49;100551.69;;;14.43;100.00
17781;BME280;8498;52.516;13.790;2023-07-22T00:44:12;100549.34;;;14.50;100.00
17781;BME280;8498;52.516;13.790;2023-07-22T00:49:36;100559.09;;;14.60;100.00
17781;BME280;8498;52.516;13.790;2023-07-22T00:54:58;100548.97;;;14.64;100.00
17781;BME280;8498;52.516;13.790;2023-07-22T01:00:23;100537.19;;;14.66;100.00
17781;BME280;8498;52.516;13.790;2023-07-22T01:05:47;100542.81;;;14.63;100.00
17781;BME280;8498;52.516;13.790;2023-07-22T01:11:10;100536.78;;;14.71;100.00
17781;BME280;8498;52.516;13.790;2023-07-22T01:16:33;100543.69;;;14.74;100.00
17781;BME280;8498;52.516;13.790;2023-07-22T01:21:59;100553.19;;;14.97;100.00
17781;BME280;8498;52.516;13.790;2023-07-22T01:27:22;100541.53;;;15.07;100.00
17781;BME280;8498;52.516;13.790;2023-07-22T01:32:45;100539.06;;;15.16;100.00
17781;BME280;8498;52.516;13.790;2023-07-22T01:38:07;100543.41;;;15.26;100.00
17781;BME280;8498;52.516;13.790;2023-07-22T01:43:31;100553.72;;;15.31;100.00
17781;BME280;8498;52.516;13.790;2023-07-22T01:48:55;100545.28;;;15.35;100.00
17781;BME280;8498;52.516;13.790;2023-07-22T01:54:17;100545.84;;;15.39;100.00
17781;BME280;8498;52.516;13.790;2023-07-22T01:59:40;100550.22;;;15.40;100.00
17781;BME280;8498;52.516;13.790;2023-07-22T02:05:02;100550.94;;;15.42;100.00
17781;BME280;8498;52.516;13.790;2023-07-22T02:10:25;100558.81;;;15.43;100.00
17781;BME280;8498;52.516;13.790;2023-07-22T02:15:47;100544.59;;;15.53;100.00
17781;BME280;8498;52.516;13.790;2023-07-22T02:21:10;100556.16;;;15.53;100.00
17781;BME280;8498;52.516;13.790;2023-07-22T02:26:32;100565.91;;;15.54;100.00
17781;BME280;8498;52.516;13.790;2023-07-22T02:31:54;100572.13;;;15.55;100.00
17781;BME280;8498;52.516;13.790;2023-07-22T02:37:17;100576.28;;;15.48;100.00
17781;BME280;8498;52.516;13.790;2023-07-22T02:42:40;100585.88;;;15.50;100.00
17781;BME280;8498;52.516;13.790;2023-07-22T02:48:02;100599.13;;;15.52;100.00
17781;BME280;8498;52.516;13.790;2023-07-22T02:53:25;100603.63;;;15.51;100.00
17781;BME280;8498;52.516;13.790;2023-07-22T02:58:47;100616.91;;;15.53;100.00
17781;BME280;8498;52.516;13.790;2023-07-22T03:04:10;100614.13;;;15.54;100.00
17781;BME280;8498;52.516;13.790;2023-07-22T03:09:34;100617.16;;;15.50;100.00
17781;BME280;8498;52.516;13.790;2023-07-22T03:14:57;100624.47;;;15.48;100.00
17781;BME280;8498;52.516;13.790;2023-07-22T03:20:19;100616.31;;;15.49;100.00
17781;BME280;8498;52.516;13.790;2023-07-22T03:25:41;100626.03;;;15.50;100.00
17781;BME280;8498;52.516;13.790;2023-07-22T03:31:04;100628.97;;;15.47;100.00
17781;BME280;8498;52.516;13.790;2023-07-22T03:36:26;100636.31;;;15.45;100.00
17781;BME280;8498;52.516;13.790;2023-07-22T03:41:49;100644.22;;;15.47;100.00
17781;BME280;8498;52.516;13.790;2023-07-22T03:47:12;100648.44;;;15.49;100.00
17781;BME280;8498;52.516;13.790;2023-07-22T03:52:35;100657.88;;;15.43;100.00
17781;BME280;8498;52.516;13.790;2023-07-22T03:57:57;100658.84;;;15.42;100.00
17781;BME280;8498;52.516;13.790;2023-07-22T04:03:19;100665.91;;;15.43;100.00
17781;BME280;8498;52.516;13.790;2023-07-22T04:08:42;100663.94;;;15.46;100.00
17781;BME280;8498;52.516;13.790;2023-07-22T04:14:05;100669.84;;;15.49;100.00
17781;BME280;8498;52.516;13.790;2023-07-22T04:19:27;100682.53;;;15.47;100.00
17781;BME280;8498;52.516;13.790;2023-07-22T04:24:52;100665.91;;;15.43;100.00
17781;BME280;8498;52.516;13.790;2023-07-22T04:30:15;100676.78;;;15.52;100.00
17781;BME280;8498;52.516;13.790;2023-07-22T04:35:42;100687.63;;;15.50;100.00
17781;BME280;8498;52.516;13.790;2023-07-22T04:41:05;100693.56;;;15.54;100.00
17781;BME280;8498;52.516;13.790;2023-07-22T04:46:28;100687.25;;;15.55;100.00
17781;BME280;8498;52.516;13.790;2023-07-22T04:51:51;100699.09;;;15.62;100.00
17781;BME280;8498;52.516;13.790;2023-07-22T04:57:13;100703.22;;;15.66;100.00
17781;BME280;8498;52.516;13.790;2023-07-22T05:02:36;100698.28;;;15.71;100.00
17781;BME280;8498;52.516;13.790;2023-07-22T05:07:58;100707.88;;;15.73;100.00
17781;BME280;8498;52.516;13.790;2023-07-22T05:13:21;100718.75;;;15.82;100.00
17781;BME280;8498;52.516;13.790;2023-07-22T05:18:43;100715.69;;;15.86;100.00
17781;BME280;8498;52.516;13.790;2023-07-22T05:24:05;100728.38;;;15.94;100.00
17781;BME280;8498;52.516;13.790;2023-07-22T05:29:28;100733.03;;;16.01;100.00
17781;BME280;8498;52.516;13.790;2023-07-22T05:34:50;100728.84;;;16.08;100.00
17781;BME280;8498;52.516;13.790;2023-07-22T05:40:13;100720.09;;;16.06;100.00
17781;BME280;8498;52.516;13.790;2023-07-22T05:45:35;100730.69;;;16.18;100.00
17781;BME280;8498;52.516;13.790;2023-07-22T05:50:58;100725.75;;;16.23;100.00
17781;BME280;8498;52.516;13.790;2023-07-22T05:56:20;100734.94;;;16.30;100.00
17781;BME280;8498;52.516;13.790;2023-07-22T06:01:43;100737.19;;;16.34;100.00
17781;BME280;8498;52.516;13.790;2023-07-22T06:07:05;100744.97;;;16.47;100.00
17781;BME280;8498;52.516;13.790;2023-07-22T06:12:28;100738.47;;;16.59;100.00
17781;BME280;8498;52.516;13.790;2023-07-22T06:17:51;100750.63;;;16.63;100.00
17781;BME280;8498;52.516;13.790;2023-07-22T06:23:13;100746.41;;;16.80;100.00
17781;BME280;8498;52.516;13.790;2023-07-22T06:28:36;100754.97;;;16.93;98.71
17781;BME280;8498;52.516;13.790;2023-07-22T06:33:59;100757.78;;;17.11;98.08
17781;BME280;8498;52.516;13.790;2023-07-22T06:39:22;100751.84;;;17.07;96.09
17781;BME280;8498;52.516;13.790;2023-07-22T06:44:44;100758.31;;;17.14;96.02
17781;BME280;8498;52.516;13.790;2023-07-22T06:50:07;100764.69;;;17.13;95.53
17781;BME280;8498;52.516;13.790;2023-07-22T06:55:29;100781.47;;;17.25;94.23
17781;BME280;8498;52.516;13.790;2023-07-22T07:00:53;100774.22;;;17.35;93.96
17781;BME280;8498;52.516;13.790;2023-07-22T07:06:16;100775.94;;;17.36;91.15
17781;BME280;8498;52.516;13.790;2023-07-22T07:11:39;100771.81;;;17.51;90.44
17781;BME280;8498;52.516;13.790;2023-07-22T07:17:03;100784.91;;;17.74;89.77
17781;BME280;8498;52.516;13.790;2023-07-22T07:22:25;100781.69;;;17.88;87.26
17781;BME280;8498;52.516;13.790;2023-07-22T07:27:48;100786.34;;;17.95;82.11
17781;BME280;8498;52.516;13.790;2023-07-22T07:33:10;100796.59;;;18.10;78.91
17781;BME280;8498;52.516;13.790;2023-07-22T07:38:32;100798.75;;;18.06;78.11
17781;BME280;8498;52.516;13.790;2023-07-22T07:43:55;100793.84;;;18.19;76.88
17781;BME280;8498;52.516;13.790;2023-07-22T07:49:17;100815.28;;;18.29;75.95
17781;BME280;8498;52.516;13.790;2023-07-22T07:54:44;100819.53;;;18.31;74.11
17781;BME280;8498;52.516;13.790;2023-07-22T08:00:07;100825.25;;;18.46;73.56
17781;BME280;8498;52.516;13.790;2023-07-22T08:05:32;100820.22;;;18.61;71.81
17781;BME280;8498;52.516;13.790;2023-07-22T08:11:21;100823.31;;;18.66;70.92
17781;BME280;8498;52.516;13.790;2023-07-22T08:16:44;100814.91;;;18.69;71.07
17781;BME280;8498;52.516;13.790;2023-07-22T08:22:06;100826.13;;;19.00;71.94
17781;BME280;8498;52.516;13.790;2023-07-22T08:27:29;100818.34;;;19.15;69.38
17781;BME280;8498;52.516;13.790;2023-07-22T08:32:51;100835.41;;;19.23;66.83
17781;BME280;8498;52.516;13.790;2023-07-22T08:38:14;100833.13;;;19.11;66.62
17781;BME280;8498;52.516;13.790;2023-07-22T08:43:38;100853.88;;;19.36;66.28
17781;BME280;8498;52.516;13.790;2023-07-22T08:49:04;100845.47;;;19.39;65.60
17781;BME280;8498;52.516;13.790;2023-07-22T08:54:28;100854.53;;;19.56;63.88
17781;BME280;8498;52.516;13.790;2023-07-22T08:59:51;100854.84;;;19.53;62.16
17781;BME280;8498;52.516;13.790;2023-07-22T09:05:15;100859.16;;;19.46;62.02
17781;BME280;8498;52.516;13.790;2023-07-22T09:10:38;100857.63;;;19.61;61.98
17781;BME280;8498;52.516;13.790;2023-07-22T09:16:01;100858.38;;;19.71;61.38
17781;BME280;8498;52.516;13.790;2023-07-22T09:21:24;100859.41;;;19.78;61.09
17781;BME280;8498;52.516;13.790;2023-07-22T09:26:47;100856.25;;;19.83;60.09
17781;BME280;8498;52.516;13.790;2023-07-22T09:32:09;100865.34;;;19.82;59.03
17781;BME280;8498;52.516;13.790;2023-07-22T09:37:38;100858.22;;;19.72;59.98
17781;BME280;8498;52.516;13.790;2023-07-22T09:43:02;100857.91;;;19.84;59.69
17781;BME280;8498;52.516;13.790;2023-07-22T09:48:25;100851.69;;;20.25;59.32
17781;BME280;8498;52.516;13.790;2023-07-22T09:54:00;100846.09;;;20.44;56.45
17781;BME280;8498;52.516;13.790;2023-07-22T09:59:23;100852.81;;;20.40;56.35
17781;BME280;8498;52.516;13.790;2023-07-22T10:04:46;100855.16;;;20.35;57.62
17781;BME280;8498;52.516;13.790;2023-07-22T10:10:11;100853.75;;;20.73;55.70
17781;BME280;8498;52.516;13.790;2023-07-22T10:15:34;100861.69;;;20.99;54.41
17781;BME280;8498;52.516;13.790;2023-07-22T10:20:58;100866.38;;;20.65;54.98
17781;BME280;8498;52.516;13.790;2023-07-22T10:26:22;100854.38;;;20.59;55.27
17781;BME280;8498;52.516;13.790;2023-07-22T10:32:05;100864.28;;;21.33;54.55
17781;BME280;8498;52.516;13.790;2023-07-22T10:37:32;100867.63;;;21.03;53.45
17781;BME280;8498;52.516;13.790;2023-07-22T10:43:05;100863.41;;;21.08;53.11
17781;BME280;8498;52.516;13.790;2023-07-22T10:48:34;100871.16;;;21.11;53.30
17781;BME280;8498;52.516;13.790;2023-07-22T10:53:57;100864.28;;;21.33;51.74
17781;BME280;8498;52.516;13.790;2023-07-22T10:59:26;100852.13;;;21.29;51.89
17781;BME280;8498;52.516;13.790;2023-07-22T11:04:49;100847.88;;;21.59;51.47
17781;BME280;8498;52.516;13.790;2023-07-22T11:10:18;100852.81;;;21.23;51.12
17781;BME280;8498;52.516;13.790;2023-07-22T11:15:47;100856.34;;;21.32;50.50
17781;BME280;8498;52.516;13.790;2023-07-22T11:21:11;100853.31;;;21.27;52.35
17781;BME280;8498;52.516;13.790;2023-07-22T11:31:56;100846.75;;;21.92;49.69
17781;BME280;8498;52.516;13.790;2023-07-22T11:37:19;100851.78;;;21.48;48.26
17781;BME280;8498;52.516;13.790;2023-07-22T11:42:42;100851.03;;;21.87;49.33
17781;BME280;8498;52.516;13.790;2023-07-22T11:48:10;100846.59;;;22.10;48.20
17781;BME280;8498;52.516;13.790;2023-07-22T11:53:33;100841.22;;;22.33;48.04
17781;BME280;8498;52.516;13.790;2023-07-22T11:58:56;100835.34;;;23.06;46.19
17781;BME280;8498;52.516;13.790;2023-07-22T12:04:23;100838.16;;;22.67;45.78
17781;BME280;8498;52.516;13.790;2023-07-22T12:09:48;100841.09;;;22.88;45.09
17781;BME280;8498;52.516;13.790;2023-07-22T12:15:12;100826.75;;;23.77;45.16
17781;BME280;8498;52.516;13.790;2023-07-22T12:20:40;100821.59;;;24.27;43.69
17781;BME280;8498;52.516;13.790;2023-07-22T12:26:02;100818.53;;;24.51;43.72
17781;BME280;8498;52.516;13.790;2023-07-22T12:31:25;100815.78;;;24.00;41.70
17781;BME280;8498;52.516;13.790;2023-07-22T12:36:50;100822.19;;;24.58;41.15
17781;BME280;8498;52.516;13.790;2023-07-22T12:42:12;100816.66;;;24.51;39.82
17781;BME280;8498;52.516;13.790;2023-07-22T12:47:35;100802.16;;;24.59;40.71
17781;BME280;8498;52.516;13.790;2023-07-22T12:52:58;100798.91;;;25.13;40.31
17781;BME280;8498;52.516;13.790;2023-07-22T12:58:20;100798.75;;;25.70;39.75
17781;BME280;8498;52.516;13.790;2023-07-22T13:03:43;100800.75;;;25.34;38.38
17781;BME280;8498;52.516;13.790;2023-07-22T13:09:06;100806.16;;;25.27;38.59
17781;BME280;8498;52.516;13.790;2023-07-22T13:14:29;100818.63;;;24.58;40.32
17781;BME280;8498;52.516;13.790;2023-07-22T13:19:52;100809.59;;;24.36;41.59
17781;BME280;8498;52.516;13.790;2023-07-22T13:25:14;100810.00;;;24.03;40.75
17781;BME280;8498;52.516;13.790;2023-07-22T13:30:37;100805.81;;;23.86;41.75
17781;BME280;8498;52.516;13.790;2023-07-22T13:35:59;100798.38;;;24.09;42.07
17781;BME280;8498;52.516;13.790;2023-07-22T13:41:22;100795.97;;;23.85;41.53
17781;BME280;8498;52.516;13.790;2023-07-22T13:46:44;100796.13;;;23.98;41.97
17781;BME280;8498;52.516;13.790;2023-07-22T13:52:07;100797.94;;;24.06;42.03
17781;BME280;8498;52.516;13.790;2023-07-22T13:57:30;100796.78;;;24.30;41.19
17781;BME280;8498;52.516;13.790;2023-07-22T14:02:52;100793.53;;;24.77;39.51
17781;BME280;8498;52.516;13.790;2023-07-22T14:08:15;100786.22;;;24.56;40.54
17781;BME280;8498;52.516;13.790;2023-07-22T14:13:37;100779.75;;;24.78;39.80
17781;BME280;8498;52.516;13.790;2023-07-22T14:19:00;100781.38;;;24.73;40.22
17781;BME280;8498;52.516;13.790;2023-07-22T14:24:22;100788.06;;;24.92;40.07
17781;BME280;8498;52.516;13.790;2023-07-22T14:29:45;100776.63;;;24.81;40.59
17781;BME280;8498;52.516;13.790;2023-07-22T14:35:08;100781.00;;;24.97;39.42
17781;BME280;8498;52.516;13.790;2023-07-22T14:40:30;100770.06;;;24.91;39.54
17781;BME280;8498;52.516;13.790;2023-07-22T14:45:53;100774.66;;;24.90;39.78
17781;BME280;8498;52.516;13.790;2023-07-22T14:51:16;100764.28;;;24.36;40.21
17781;BME280;8498;52.516;13.790;2023-07-22T14:56:38;100779.28;;;24.18;41.45
17781;BME280;8498;52.516;13.790;2023-07-22T15:02:01;100775.97;;;23.86;41.13
17781;BME280;8498;52.516;13.790;2023-07-22T15:07:23;100769.03;;;23.84;42.01
17781;BME280;8498;52.516;13.790;2023-07-22T15:12:46;100774.44;;;24.28;40.14
17781;BME280;8498;52.516;13.790;2023-07-22T15:18:08;100775.25;;;23.99;40.56
17781;BME280;8498;52.516;13.790;2023-07-22T15:23:31;100769.31;;;23.74;41.45
17781;BME280;8498;52.516;13.790;2023-07-22T15:28:53;100773.50;;;23.91;42.93
17781;BME280;8498;52.516;13.790;2023-07-22T15:34:16;100774.94;;;23.72;42.72
17781;BME280;8498;52.516;13.790;2023-07-22T15:39:38;100772.47;;;24.07;44.41
17781;BME280;8498;52.516;13.790;2023-07-22T15:45:01;100765.19;;;24.43;41.36
17781;BME280;8498;52.516;13.790;2023-07-22T15:50:23;100768.28;;;24.40;41.47
17781;BME280;8498;52.516;13.790;2023-07-22T15:55:46;100767.88;;;24.07;42.56
17781;BME280;8498;52.516;13.790;2023-07-22T16:01:10;100764.09;;;23.72;42.95
17781;BME280;8498;52.516;13.790;2023-07-22T16:06:33;100764.72;;;23.60;43.28
17781;BME280;8498;52.516;13.790;2023-07-22T16:11:55;100758.00;;;23.56;43.57
17781;BME280;8498;52.516;13.790;2023-07-22T16:17:17;100755.56;;;23.61;43.24
17781;BME280;8498;52.516;13.790;2023-07-22T16:22:40;100754.88;;;23.88;42.63
17781;BME280;8498;52.516;13.790;2023-07-22T16:28:03;100754.75;;;24.26;42.33
17781;BME280;8498;52.516;13.790;2023-07-22T16:33:26;100757.88;;;24.08;43.08
17781;BME280;8498;52.516;13.790;2023-07-22T16:38:48;100756.56;;;24.04;43.11
17781;BME280;8498;52.516;13.790;2023-07-22T16:44:11;100759.75;;;24.07;42.44
17781;BME280;8498;52.516;13.790;2023-07-22T16:49:34;100757.16;;;24.21;42.69
17781;BME280;8498;52.516;13.790;2023-07-22T16:54:56;100745.22;;;24.00;43.12
17781;BME280;8498;52.516;13.790;2023-07-22T17:00:19;100740.69;;;23.86;42.99
17781;BME280;8498;52.516;13.790;2023-07-22T17:05:41;100737.13;;;23.86;43.51
17781;BME280;8498;52.516;13.790;2023-07-22T17:11:04;100740.22;;;23.68;43.84
17781;BME280;8498;52.516;13.790;2023-07-22T17:16:26;100744.88;;;23.45;44.11
17781;BME280;8498;52.516;13.790;2023-07-22T17:21:49;100731.78;;;23.33;44.56
17781;BME280;8498;52.516;13.790;2023-07-22T17:27:11;100743.34;;;23.27;45.07
17781;BME280;8498;52.516;13.790;2023-07-22T17:32:34;100733.63;;;23.18;45.32
17781;BME280;8498;52.516;13.790;2023-07-22T17:37:57;100734.38;;;23.12;47.12
17781;BME280;8498;52.516;13.790;2023-07-22T17:43:20;100729.09;;;22.96;48.96
17781;BME280;8498;52.516;13.790;2023-07-22T17:48:42;100724.19;;;22.77;51.44
17781;BME280;8498;52.516;13.790;2023-07-22T17:54:09;100730.09;;;22.57;53.71
17781;BME280;8498;52.516;13.790;2023-07-22T17:59:31;100721.94;;;22.34;56.70
17781;BME280;8498;52.516;13.790;2023-07-22T18:04:54;100710.31;;;22.03;59.00
17781;BME280;8498;52.516;13.790;2023-07-22T18:10:16;100705.66;;;21.81;62.76
17781;BME280;8498;52.516;13.790;2023-07-22T18:15:38;100710.38;;;21.48;64.20
17781;BME280;8498;52.516;13.790;2023-07-22T18:21:02;100714.31;;;21.29;64.26
17781;BME280;8498;52.516;13.790;2023-07-22T18:26:25;100704.03;;;21.00;63.72
17781;BME280;8498;52.516;13.790;2023-07-22T18:31:47;100714.03;;;20.75;64.67
17781;BME280;8498;52.516;13.790;2023-07-22T18:37:10;100710.66;;;20.49;66.33
17781;BME280;8498;52.516;13.790;2023-07-22T18:42:32;100715.97;;;20.25;67.47
17781;BME280;8498;52.516;13.790;2023-07-22T18:47:55;100718.81;;;20.07;68.07
17781;BME280;8498;52.516;13.790;2023-07-22T18:53:17;100713.69;;;19.88;68.51
17781;BME280;8498;52.516;13.790;2023-07-22T18:58:41;100722.06;;;19.68;70.61
17781;BME280;8498;52.516;13.790;2023-07-22T19:04:03;100716.16;;;19.39;72.12
17781;BME280;8498;52.516;13.790;2023-07-22T19:09:26;100717.72;;;19.16;73.35
17781;BME280;8498;52.516;13.790;2023-07-22T19:14:52;100712.63;;;19.13;73.50
17781;BME280;8498;52.516;13.790;2023-07-22T19:20:15;100713.22;;;18.98;74.21
17781;BME280;8498;52.516;13.790;2023-07-22T19:25:38;100719.81;;;18.78;75.28
17781;BME280;8498;52.516;13.790;2023-07-22T19:31:00;100723.34;;;18.61;75.90
17781;BME280;8498;52.516;13.790;2023-07-22T19:36:23;100721.72;;;18.32;77.21
17781;BME280;8498;52.516;13.790;2023-07-22T19:41:45;100721.00;;;18.13;78.76
17781;BME280;8498;52.516;13.790;2023-07-22T19:47:08;100718.41;;;18.03;79.13
17781;BME280;8498;52.516;13.790;2023-07-22T19:52:30;100719.03;;;17.87;80.32
17781;BME280;8498;52.516;13.790;2023-07-22T19:57:52;100716.81;;;17.83;81.76
17781;BME280;8498;52.516;13.790;2023-07-22T20:03:15;100710.94;;;17.70;82.39
17781;BME280;8498;52.516;13.790;2023-07-22T20:08:38;100700.66;;;17.55;83.87
17781;BME280;8498;52.516;13.790;2023-07-22T20:14:01;100705.22;;;17.45;84.79
17781;BME280;8498;52.516;13.790;2023-07-22T20:19:27;100705.13;;;17.37;85.41
17781;BME280;8498;52.516;13.790;2023-07-22T20:24:50;100710.81;;;17.24;86.42
17781;BME280;8498;52.516;13.790;2023-07-22T20:30:13;100701.94;;;17.14;87.31
17781;BME280;8498;52.516;13.790;2023-07-22T20:35:35;100698.88;;;17.09;87.66
17781;BME280;8498;52.516;13.790;2023-07-22T20:41:02;100707.34;;;17.05;87.83
17781;BME280;8498;52.516;13.790;2023-07-22T20:46:25;100707.50;;;17.03;88.42
17781;BME280;8498;52.516;13.790;2023-07-22T20:51:48;100701.00;;;17.06;88.33
17781;BME280;8498;52.516;13.790;2023-07-22T20:57:10;100698.72;;;17.11;88.14
17781;BME280;8498;52.516;13.790;2023-07-22T21:02:32;100696.75;;;17.13;87.61
17781;BME280;8498;52.516;13.790;2023-07-22T21:07:55;100686.44;;;17.08;87.43
17781;BME280;8498;52.516;13.790;2023-07-22T21:13:19;100688.00;;;17.11;87.37
17781;BME280;8498;52.516;13.790;2023-07-22T21:18:42;100683.72;;;17.18;85.92
17781;BME280;8498;52.516;13.790;2023-07-22T21:24:04;100681.47;;;17.13;86.43
17781;BME280;8498;52.516;13.790;2023-07-22T21:29:27;100671.44;;;17.15;85.96
17781;BME280;8498;52.516;13.790;2023-07-22T21:34:50;100671.00;;;17.20;85.42
17781;BME280;8498;52.516;13.790;2023-07-22T21:40:12;100681.75;;;17.20;86.22
17781;BME280;8498;52.516;13.790;2023-07-22T21:45:35;100677.06;;;17.22;86.70
17781;BME280;8498;52.516;13.790;2023-07-22T21:50:57;100680.00;;;17.29;86.45
17781;BME280;8498;52.516;13.790;2023-07-22T21:56:20;100671.66;;;17.32;87.21
17781;BME280;8498;52.516;13.790;2023-07-22T22:01:42;100675.72;;;17.36;87.95
17781;BME280;8498;52.516;13.790;2023-07-22T22:07:05;100664.13;;;17.35;87.36
17781;BME280;8498;52.516;13.790;2023-07-22T22:12:28;100655.56;;;17.32;87.38
17781;BME280;8498;52.516;13.790;2023-07-22T22:17:50;100655.13;;;17.27;87.04
17781;BME280;8498;52.516;13.790;2023-07-22T22:23:21;100648.81;;;17.18;87.54
17781;BME280;8498;52.516;13.790;2023-07-22T22:28:44;100649.44;;;17.12;87.94
17781;BME280;8498;52.516;13.790;2023-07-22T22:34:06;100652.97;;;17.03;89.09
17781;BME280;8498;52.516;13.790;2023-07-22T22:39:29;100656.66;;;17.02;88.79
17781;BME280;8498;52.516;13.790;2023-07-22T22:44:53;100648.75;;;17.00;88.58
17781;BME280;8498;52.516;13.790;2023-07-22T22:50:15;100656.09;;;16.98;90.08
17781;BME280;8498;52.516;13.790;2023-07-22T22:55:41;100635.88;;;17.04;89.18
17781;BME280;8498;52.516;13.790;2023-07-22T23:01:12;100637.00;;;17.11;88.98
17781;BME280;8498;52.516;13.790;2023-07-22T23:06:35;100622.97;;;17.17;88.60
17781;BME280;8498;52.516;13.790;2023-07-22T23:11:58;100618.31;;;17.19;88.27
17781;BME280;8498;52.516;13.790;2023-07-22T23:17:20;100614.03;;;17.26;83.85
17781;BME280;8498;52.516;13.790;2023-07-22T23:22:42;100610.94;;;17.48;81.44
17781;BME280;8498;52.516;13.790;2023-07-22T23:28:05;100613.94;;;17.73;77.25
17781;BME280;8498;52.516;13.790;2023-07-22T23:33:28;100601.03;;;17.94;73.13
17781;BME280;8498;52.516;13.790;2023-07-22T23:38:53;100598.88;;;18.15;70.47
17781;BME280;8498;52.516;13.790;2023-07-22T23:44:15;100588.53;;;18.28;68.36
17781;BME280;8498;52.516;13.790;2023-07-22T23:49:38;100594.38;;;18.42;67.31
17781;BME280;8498;52.516;13.790;2023-07-22T23:55:01;100596.06;;;18.43;67.11
